Webcam 1 more information Webcam 1


Webcam 2 more information Webcam 2


avvertimento per Neve / Ghiaccio more information rain snow radar


altri nostri siti meteo:

Pomeziameteo 1Sito sul meteo

Pomeziameteo DashboardSito sul meteo

Caput FrigorisSito sul meteo

BarcellonameteoSito sul meteo

MeteoipassiSito sul meteo

ViterbometeoSito sul meteo

MeteotortoretoSito sul meteo

Stazione LineameteoSito sul meteo



Neve/Ghiaccio Inizio validita dal: 31-03-2020 11:00 Fino: 22:59 Allerta per: Neve/Ghiaccio Livello: Giallo info button

Report METAR

   
LIBP - Pescara
Dati ricevuti: 31-03-2020 14:50
Pioviggine, Molto nuvoloso  
Pioviggine, Molto nuvoloso  
   Vento: NNW 11.1 km/h
Vento: NNW 11.1 km/h
Temperatura: 8°C
Temperatura Vento: 6°C
P.to Rugiada: 5°C
Umidita: 82%
Barometro: 1019 hPa
Nuvole: Molto nuvoloso
Visibilita: 4 km
dettagli cloud: Molto nuvoloso 2000 ft
LIBP 311250Z 34006KT 4000 DZ BKN020 08/05 Q1019
LIRZ - Perugia
Dati ricevuti: 31-03-2020 14:50
Pioggia leggera, Molto nuvoloso  
Pioggia leggera, Molto nuvoloso  
   Vento: NE 24.1 km/h
Vento: NE 24.1 km/h
Temperatura: 6°C
Temperatura Vento: 2°C
P.to Rugiada: 1°C
Umidita: 71%
Barometro: 1018 hPa
Nuvole: Molto nuvoloso
Visibilita: oltre 10 km
dettagli cloud: Poche nuvole 3000 ft,
Molto nuvoloso 4000 ft
LIRZ 311250Z 02013KT 9999 R01/1400N -RA FEW030 BKN040 06/01 Q1018
LIQN - Rieti
Dati ricevuti: 31-03-2020 14:50
Poche nuvole  
Poche nuvole  
   Vento: NO 22.2 km/h
Vento: NO 22.2 km/h
Temperatura: 9°C
Temperatura Vento: 6°C
P.to Rugiada: 4°C
Umidita: 71%
Barometro: 1014 hPa
Nuvole: Poche nuvole
Visibilita: oltre 10 km
dettagli cloud: Poche nuvole 4000 ft
LIQN 311250Z 32012KT 9999 FEW040 09/04 Q1014
LIPY - Falconara
Dati ricevuti: 31-03-2020 14:50
Parzialmente nuvoloso  
Parzialmente nuvoloso  
   Vento: Nord 25.9 km/h
Vento: Nord 25.9 km/h
Temperatura: 9°C
Temperatura Vento: 6°C
P.to Rugiada: -3°C
Umidita: 43%
Barometro: 1020 hPa
Nuvole: Parzialmente nuvoloso
Visibilita: oltre 10 km
dettagli cloud: Parzialmente nuvoloso 7000 ft
LIPY 311250Z 36014KT 9999 SCT070 09/M03 Q1020
  

Script sviluppato da  Saratoga-weather.org Adattato per il modello da  Weerstation Leuven

Potete trovare le nostre info meteo anche a:

Weather Underground

AWEKAS

Citizen Weather Observer Program (CWOP)

HAMweather, WeatherForYou, PWS Weather

Strumentazione usata:

Stazione meteo
Oregon 928

Programma gestore dati meteo
WVIEW

Server per i dati meteo
Pc-WDS5

Oregon 928

WVIEW

Pc-WDS5